createdAt,value
2018-01-20T00:00:09.740Z,5.10
2018-01-20T00:02:36.140Z,5.10
2018-01-20T00:05:02.778Z,4.90
2018-01-20T00:07:29.149Z,4.90
2018-01-20T00:10:07.876Z,5.00
2018-01-20T00:12:34.316Z,4.90
2018-01-20T00:15:00.695Z,5.00
2018-01-20T00:17:27.382Z,5.00
2018-01-20T00:19:53.860Z,5.10
2018-01-20T00:22:22.375Z,5.10
2018-01-20T00:24:55.224Z,5.10
2018-01-20T00:27:22.080Z,5.10
2018-01-20T00:29:48.624Z,5.10
2018-01-20T00:32:15.200Z,5.10
2018-01-20T00:34:41.737Z,5.10
2018-01-20T00:37:08.211Z,5.20
2018-01-20T00:39:34.812Z,5.30
2018-01-20T00:42:01.356Z,5.30
2018-01-20T00:44:27.872Z,5.20
2018-01-20T00:46:54.739Z,5.20
2018-01-20T00:49:21.196Z,5.20
2018-01-20T00:51:48.352Z,5.20
2018-01-20T00:54:14.888Z,5.00
2018-01-20T00:56:41.426Z,5.10
2018-01-20T00:59:08.000Z,5.00
2018-01-20T01:01:36.641Z,5.00
2018-01-20T01:04:03.336Z,4.80
2018-01-20T01:06:30.081Z,4.90
2018-01-20T01:08:56.625Z,4.80
2018-01-20T01:11:23.090Z,5.00
2018-01-20T01:13:49.619Z,5.00
2018-01-20T01:16:16.204Z,4.90
2018-01-20T01:18:43.043Z,4.70
2018-01-20T01:21:09.839Z,4.60
2018-01-20T01:23:36.384Z,4.70
2018-01-20T01:26:04.812Z,4.70
2018-01-20T01:28:32.229Z,4.60
2018-01-20T01:30:58.749Z,4.60
2018-01-20T01:33:25.390Z,4.60
2018-01-20T01:35:51.879Z,4.60
2018-01-20T01:38:18.356Z,4.50
2018-01-20T01:40:44.890Z,4.50
2018-01-20T01:43:11.308Z,4.50
2018-01-20T01:45:38.273Z,4.60
2018-01-20T01:48:04.797Z,4.70
2018-01-20T01:50:31.683Z,4.70
2018-01-20T01:52:58.112Z,4.80
2018-01-20T01:55:24.704Z,4.80
2018-01-20T01:57:51.568Z,4.60
2018-01-20T02:00:18.108Z,4.50
2018-01-20T02:02:44.467Z,4.60
2018-01-20T02:05:10.855Z,4.50
2018-01-20T02:07:37.391Z,4.30
2018-01-20T02:10:03.983Z,4.20
2018-01-20T02:12:30.464Z,4.00
2018-01-20T02:14:57.013Z,3.90
2018-01-20T02:17:23.543Z,3.90
2018-01-20T02:19:50.085Z,4.10
2018-01-20T02:22:16.603Z,4.10
2018-01-20T02:24:43.164Z,3.70
2018-01-20T02:27:09.735Z,3.40
2018-01-20T02:29:36.198Z,3.40
2018-01-20T02:32:02.729Z,3.30
2018-01-20T02:34:29.288Z,3.20
2018-01-20T02:36:55.856Z,3.50
2018-01-20T02:39:23.648Z,3.50
2018-01-20T02:41:50.099Z,3.50
2018-01-20T02:44:16.748Z,3.40
2018-01-20T02:46:43.176Z,3.40
2018-01-20T02:49:09.604Z,3.70
2018-01-20T02:51:36.920Z,3.80
2018-01-20T02:54:03.469Z,3.60
2018-01-20T02:56:30.301Z,3.70
2018-01-20T02:58:56.740Z,3.80
2018-01-20T03:01:23.340Z,3.80
2018-01-20T03:03:49.899Z,3.90
2018-01-20T03:06:16.444Z,3.90
2018-01-20T03:08:42.935Z,3.90
2018-01-20T03:11:09.523Z,3.90
2018-01-20T03:13:36.097Z,4.00
2018-01-20T03:16:02.540Z,4.00
2018-01-20T03:18:29.109Z,3.70
2018-01-20T03:20:56.397Z,3.80
2018-01-20T03:23:23.452Z,4.00
2018-01-20T03:25:49.911Z,4.00
2018-01-20T03:28:16.476Z,4.00
2018-01-20T03:30:42.964Z,4.00
2018-01-20T03:33:09.504Z,4.10
2018-01-20T03:35:36.065Z,4.10
2018-01-20T03:38:02.584Z,4.10
2018-01-20T03:40:29.414Z,4.00
2018-01-20T03:42:56.012Z,4.10
2018-01-20T03:45:22.535Z,4.30
2018-01-20T03:47:48.982Z,4.20
2018-01-20T03:50:15.557Z,4.40
2018-01-20T03:52:42.248Z,4.30
2018-01-20T03:55:08.977Z,4.30
2018-01-20T03:57:35.537Z,4.40
2018-01-20T04:00:02.044Z,4.50
2018-01-20T04:02:29.447Z,4.30
2018-01-20T04:04:55.876Z,4.30
2018-01-20T04:07:22.866Z,4.40
2018-01-20T04:09:49.468Z,4.40
2018-01-20T04:15:05.340Z,4.70
2018-01-20T04:17:32.080Z,4.40
2018-01-20T04:19:58.556Z,4.30
2018-01-20T04:22:25.104Z,4.30
2018-01-20T04:24:51.921Z,4.30
2018-01-20T04:27:18.811Z,4.30
2018-01-20T04:29:45.312Z,4.40
2018-01-20T04:32:11.950Z,4.50
2018-01-20T04:34:38.414Z,4.60
2018-01-20T04:37:04.968Z,4.50
2018-01-20T04:39:31.528Z,4.40
2018-01-20T04:41:57.979Z,4.30
2018-01-20T04:44:24.515Z,4.40
2018-01-20T04:46:51.103Z,4.60
2018-01-20T04:49:17.651Z,4.70
2018-01-20T04:51:44.138Z,4.70
2018-01-20T04:54:10.723Z,4.90
2018-01-20T04:56:37.288Z,4.90
2018-01-20T04:59:03.729Z,4.90
2018-01-20T05:01:30.281Z,4.90
2018-01-20T05:03:56.812Z,5.00
2018-01-20T05:06:23.468Z,5.00
2018-01-20T05:08:49.847Z,5.10
2018-01-20T05:11:16.417Z,5.10
2018-01-20T05:13:42.935Z,4.90
2018-01-20T05:16:09.524Z,4.90
2018-01-20T05:18:36.011Z,5.10
2018-01-20T05:21:02.567Z,5.10
2018-01-20T05:23:29.176Z,5.20
2018-01-20T05:25:55.684Z,5.20
2018-01-20T05:28:22.432Z,5.10
2018-01-20T05:30:49.327Z,5.10
2018-01-20T05:33:15.831Z,5.10
2018-01-20T05:35:42.460Z,5.00
2018-01-20T05:38:08.920Z,4.90
2018-01-20T05:40:35.556Z,4.70
2018-01-20T05:43:01.990Z,4.70
2018-01-20T05:45:28.415Z,4.70
2018-01-20T05:47:55.043Z,4.70
2018-01-20T05:50:21.629Z,4.70
2018-01-20T05:52:48.131Z,4.80
2018-01-20T05:55:14.861Z,4.80
2018-01-20T05:57:41.591Z,4.90
2018-01-20T06:00:08.092Z,5.00
2018-01-20T06:02:34.620Z,4.80
2018-01-20T06:05:01.080Z,4.80
2018-01-20T06:07:27.945Z,4.70
2018-01-20T06:09:54.476Z,4.80
2018-01-20T06:12:21.076Z,4.90
2018-01-20T06:14:47.646Z,5.00
2018-01-20T06:17:14.079Z,5.00
2018-01-20T06:19:40.680Z,5.10
2018-01-20T06:22:07.510Z,5.30
2018-01-20T06:24:34.101Z,5.30
2018-01-20T06:27:01.768Z,5.30
2018-01-20T06:29:30.160Z,5.30
2018-01-20T06:31:56.703Z,5.40
2018-01-20T06:34:23.199Z,5.40
2018-01-20T06:36:49.744Z,5.30
2018-01-20T06:39:16.283Z,5.20
2018-01-20T06:41:42.812Z,5.20
2018-01-20T06:44:09.561Z,5.20
2018-01-20T06:46:36.244Z,5.20
2018-01-20T06:49:03.763Z,5.20
2018-01-20T06:51:30.854Z,5.30
2018-01-20T06:53:57.330Z,5.30
2018-01-20T06:56:23.768Z,5.30
2018-01-20T06:58:50.511Z,5.40
2018-01-20T07:01:16.951Z,5.40
2018-01-20T07:03:43.516Z,5.40
2018-01-20T07:06:10.124Z,5.30
2018-01-20T07:08:36.551Z,5.30
2018-01-20T07:11:03.171Z,5.30
2018-01-20T07:13:29.611Z,5.30
2018-01-20T07:15:56.501Z,5.30
2018-01-20T07:18:23.054Z,5.10
2018-01-20T07:20:49.420Z,4.90
2018-01-20T07:23:16.119Z,4.80
2018-01-20T07:25:42.972Z,4.60
2018-01-20T07:28:09.488Z,4.60
2018-01-20T07:30:35.911Z,4.70
2018-01-20T07:33:02.518Z,4.60
2018-01-20T07:35:29.028Z,4.60
2018-01-20T07:37:55.628Z,4.60
2018-01-20T07:40:22.100Z,4.70
2018-01-20T07:42:48.989Z,4.90
2018-01-20T07:45:15.560Z,5.20
2018-01-20T07:47:42.036Z,5.40
2018-01-20T07:50:08.578Z,5.60
2018-01-20T07:52:35.144Z,5.60
2018-01-20T07:55:01.681Z,5.40
2018-01-20T07:57:28.212Z,5.30
2018-01-20T07:59:55.701Z,5.40
2018-01-20T08:02:22.163Z,5.40
2018-01-20T08:04:48.764Z,5.30
2018-01-20T08:07:15.536Z,5.30
2018-01-20T08:09:43.351Z,5.50
2018-01-20T08:12:09.850Z,5.70
2018-01-20T08:14:36.744Z,5.80
2018-01-20T08:17:03.320Z,6.00
2018-01-20T08:19:29.840Z,6.00
2018-01-20T08:22:02.347Z,6.00
2018-01-20T08:24:28.960Z,5.90
2018-01-20T08:26:55.842Z,5.80
2018-01-20T08:29:22.288Z,5.70
2018-01-20T08:31:49.179Z,5.60
2018-01-20T08:34:15.828Z,5.50
2018-01-20T08:36:43.226Z,5.40
2018-01-20T08:39:09.720Z,5.30
2018-01-20T08:41:36.632Z,5.20
2018-01-20T08:44:03.084Z,5.30
2018-01-20T08:46:29.984Z,5.30
2018-01-20T08:48:56.455Z,5.30
2018-01-20T08:51:23.084Z,5.30
2018-01-20T08:53:49.549Z,5.10
2018-01-20T08:56:16.432Z,5.10
2018-01-20T08:58:43.244Z,5.10
2018-01-20T09:03:59.393Z,5.20
2018-01-20T09:06:26.277Z,5.20
2018-01-20T09:08:53.364Z,5.30
2018-01-20T09:11:20.191Z,5.40
2018-01-20T09:13:47.000Z,5.60
2018-01-20T09:16:13.843Z,5.70
2018-01-20T09:18:40.481Z,5.80
2018-01-20T09:21:08.152Z,6.00
2018-01-20T09:23:34.687Z,6.30
2018-01-20T09:26:01.335Z,6.50
2018-01-20T09:28:27.804Z,6.60
2018-01-20T09:30:54.286Z,6.70
2018-01-20T09:33:20.712Z,6.80
2018-01-20T09:35:47.364Z,6.90
2018-01-20T09:38:14.201Z,7.10
2018-01-20T09:40:41.032Z,7.20
2018-01-20T09:43:08.594Z,7.30
2018-01-20T09:45:36.273Z,7.50
2018-01-20T09:48:02.913Z,7.50
2018-01-20T09:50:29.336Z,7.60
2018-01-20T09:52:55.878Z,7.60
2018-01-20T09:55:22.404Z,7.70
2018-01-20T09:57:49.309Z,7.70
2018-01-20T10:00:15.835Z,7.80
2018-01-20T10:02:42.356Z,7.90
2018-01-20T10:05:08.788Z,7.90
2018-01-20T10:07:35.704Z,8.10
2018-01-20T10:10:02.242Z,8.20
2018-01-20T10:12:28.765Z,8.30
2018-01-20T10:14:56.597Z,8.50
2018-01-20T10:17:23.156Z,8.50
2018-01-20T10:19:50.595Z,8.40
2018-01-20T10:22:17.355Z,8.30
2018-01-20T10:24:43.901Z,8.20
2018-01-20T10:27:10.423Z,8.20
2018-01-20T10:29:37.902Z,8.20
2018-01-20T10:32:04.476Z,7.90
2018-01-20T10:34:31.264Z,7.60
2018-01-20T10:36:57.808Z,7.30
2018-01-20T10:39:24.331Z,7.20
2018-01-20T10:41:50.907Z,7.00
2018-01-20T10:44:17.464Z,6.80
2018-01-20T10:46:43.953Z,6.70
2018-01-20T10:49:10.552Z,6.60
2018-01-20T10:51:37.016Z,6.70
2018-01-20T10:54:03.699Z,6.80
2018-01-20T10:56:30.156Z,6.80
2018-01-20T10:58:56.975Z,6.60
2018-01-20T11:01:23.471Z,6.60
2018-01-20T11:03:50.042Z,6.40
2018-01-20T11:06:16.531Z,6.10
2018-01-20T11:08:43.391Z,6.00
2018-01-20T11:11:10.024Z,5.80
2018-01-20T11:13:36.520Z,5.70
2018-01-20T11:16:03.013Z,5.70
2018-01-20T11:18:29.881Z,5.60
2018-01-20T11:20:56.348Z,5.30
2018-01-20T11:23:22.968Z,5.20
2018-01-20T11:25:49.721Z,5.10
2018-01-20T11:28:16.332Z,5.10
2018-01-20T11:30:42.818Z,5.20
2018-01-20T11:33:09.363Z,5.30
2018-01-20T11:35:35.892Z,5.40
2018-01-20T11:38:02.396Z,5.50
2018-01-20T11:40:28.944Z,5.50
2018-01-20T11:42:55.501Z,5.40
2018-01-20T11:45:22.128Z,5.20
2018-01-20T11:47:49.755Z,5.30
2018-01-20T11:50:16.312Z,5.20
2018-01-20T11:52:43.152Z,5.20
2018-01-20T11:55:09.683Z,5.30
2018-01-20T11:57:36.305Z,5.20
2018-01-20T12:00:03.719Z,5.20
2018-01-20T12:02:30.319Z,5.00
2018-01-20T12:04:56.778Z,4.80
2018-01-20T12:07:23.140Z,4.80
2018-01-20T12:09:49.843Z,4.70
2018-01-20T12:12:16.427Z,4.60
2018-01-20T12:14:42.914Z,4.50
2018-01-20T12:17:09.420Z,4.60
2018-01-20T12:19:36.059Z,4.60
2018-01-20T12:22:02.543Z,4.50
2018-01-20T12:24:29.004Z,4.40
2018-01-20T12:26:55.991Z,4.20
2018-01-20T12:29:22.449Z,4.10
2018-01-20T12:31:48.984Z,4.00
2018-01-20T12:34:15.512Z,3.90
2018-01-20T12:36:42.175Z,3.80
2018-01-20T12:39:08.944Z,3.70
2018-01-20T12:41:35.435Z,3.70
2018-01-20T12:44:02.309Z,3.70
2018-01-20T12:46:30.360Z,3.60
2018-01-20T12:48:56.875Z,3.60
2018-01-20T12:51:23.415Z,3.70
2018-01-20T12:53:50.332Z,3.60
2018-01-20T12:56:16.810Z,3.70
2018-01-20T12:58:43.306Z,3.80
2018-01-20T13:01:09.863Z,3.90
2018-01-20T13:03:36.440Z,3.90
2018-01-20T13:06:03.202Z,3.80
2018-01-20T13:08:29.759Z,3.70
2018-01-20T13:10:56.704Z,3.70
2018-01-20T13:13:23.084Z,3.70
2018-01-20T13:15:49.722Z,3.70
2018-01-20T13:18:16.223Z,3.70
2018-01-20T13:20:43.028Z,3.60
2018-01-20T13:23:10.150Z,3.50
2018-01-20T13:25:36.781Z,3.40
2018-01-20T13:28:03.627Z,3.30
2018-01-20T13:30:30.083Z,3.20
2018-01-20T13:32:56.822Z,3.00
2018-01-20T13:35:23.844Z,2.90
2018-01-20T13:37:50.371Z,2.90
2018-01-20T13:40:16.869Z,2.90
2018-01-20T13:42:43.248Z,3.00
2018-01-20T13:45:09.604Z,3.00
2018-01-20T13:47:36.483Z,2.90
2018-01-20T13:50:03.300Z,2.90
2018-01-20T13:52:29.753Z,2.90
2018-01-20T13:54:56.682Z,2.80
2018-01-20T13:57:23.645Z,2.80
2018-01-20T13:59:50.045Z,2.80
2018-01-20T14:02:16.582Z,2.70
2018-01-20T14:04:43.536Z,2.60
2018-01-20T14:07:10.033Z,2.70
2018-01-20T14:09:36.556Z,2.60
2018-01-20T14:14:31.436Z,2.50
2018-01-20T14:19:26.380Z,2.40
2018-01-20T14:21:53.207Z,2.40
2018-01-20T14:24:19.765Z,2.30
2018-01-20T14:26:46.287Z,2.20
2018-01-20T14:29:13.172Z,2.20
2018-01-20T14:31:39.651Z,2.20
2018-01-20T14:34:06.164Z,2.00
2018-01-20T14:36:32.666Z,1.90
2018-01-20T14:39:00.241Z,1.90
2018-01-20T14:41:26.749Z,1.90
2018-01-20T14:43:53.290Z,1.80
2018-01-20T14:46:21.278Z,1.70
2018-01-20T14:48:47.823Z,1.70
2018-01-20T14:51:14.371Z,1.60
2018-01-20T14:53:40.937Z,1.50
2018-01-20T14:56:07.475Z,1.50
2018-01-20T14:58:34.020Z,1.50
2018-01-20T15:01:00.547Z,1.40
2018-01-20T15:03:27.436Z,1.40
2018-01-20T15:05:53.870Z,1.30
2018-01-20T15:08:20.412Z,1.30
2018-01-20T15:10:46.939Z,1.30
2018-01-20T15:13:13.535Z,1.30
2018-01-20T15:15:40.360Z,1.30
2018-01-20T15:18:06.891Z,1.20
2018-01-20T15:20:33.399Z,1.20
2018-01-20T15:23:00.233Z,1.20
2018-01-20T15:25:26.776Z,1.20
2018-01-20T15:27:53.336Z,1.20
2018-01-20T15:30:19.964Z,1.10
2018-01-20T15:32:46.367Z,1.10
2018-01-20T15:35:12.903Z,1.10
2018-01-20T15:37:39.480Z,1.10
2018-01-20T15:40:05.979Z,1.10
2018-01-20T15:42:32.522Z,1.10
2018-01-20T15:44:59.044Z,1.10
2018-01-20T15:47:25.680Z,1.20
2018-01-20T15:49:53.349Z,1.20
2018-01-20T15:52:19.944Z,1.10
2018-01-20T15:54:46.420Z,1.10
2018-01-20T15:57:12.980Z,1.10
2018-01-20T15:59:39.541Z,1.20
2018-01-20T16:02:06.069Z,1.20
2018-01-20T16:04:32.584Z,1.20
2018-01-20T16:06:59.076Z,1.20
2018-01-20T16:09:25.637Z,1.20
2018-01-20T16:11:52.169Z,1.30
2018-01-20T16:14:18.991Z,1.30
2018-01-20T16:16:45.558Z,1.30
2018-01-20T16:19:12.140Z,1.30
2018-01-20T16:21:38.692Z,1.30
2018-01-20T16:24:06.364Z,1.40
2018-01-20T16:26:32.916Z,1.30
2018-01-20T16:28:59.459Z,1.40
2018-01-20T16:31:26.068Z,1.30
2018-01-20T16:33:52.516Z,1.30
2018-01-20T16:36:19.421Z,1.30
2018-01-20T16:38:45.928Z,1.30
2018-01-20T16:41:12.419Z,1.20
2018-01-20T16:43:39.320Z,1.20
2018-01-20T16:46:05.808Z,1.20
2018-01-20T16:48:32.339Z,1.20
2018-01-20T16:50:58.880Z,1.20
2018-01-20T16:53:27.246Z,1.20
2018-01-20T16:55:53.787Z,1.20
2018-01-20T16:58:20.333Z,1.20
2018-01-20T17:00:46.916Z,1.10
2018-01-20T17:03:13.392Z,1.10
2018-01-20T17:05:39.940Z,1.10
2018-01-20T17:08:06.571Z,1.10
2018-01-20T17:10:33.020Z,1.30
2018-01-20T17:13:01.068Z,1.30
2018-01-20T17:15:27.721Z,1.30
2018-01-20T17:17:54.151Z,1.50
2018-01-20T17:20:20.693Z,1.60
2018-01-20T17:22:47.248Z,1.70
2018-01-20T17:25:14.012Z,1.80
2018-01-20T17:27:40.644Z,1.90
2018-01-20T17:30:07.119Z,1.90
2018-01-20T17:32:33.655Z,1.90
2018-01-20T17:35:00.260Z,2.10
2018-01-20T17:37:26.720Z,2.20
2018-01-20T17:39:53.264Z,2.30
2018-01-20T17:42:19.793Z,2.40
2018-01-20T17:44:47.379Z,2.40
2018-01-20T17:47:13.807Z,2.50
2018-01-20T17:49:40.380Z,2.60
2018-01-20T17:52:07.180Z,2.50
2018-01-20T17:54:33.708Z,2.40
2018-01-20T17:57:00.235Z,2.30
2018-01-20T17:59:26.652Z,2.30
2018-01-20T18:01:53.705Z,2.40
2018-01-20T18:04:20.146Z,2.40
2018-01-20T18:06:46.683Z,2.30
2018-01-20T18:09:13.223Z,2.30
2018-01-20T18:11:40.131Z,2.30
2018-01-20T18:14:06.673Z,2.20
2018-01-20T18:16:33.216Z,2.20
2018-01-20T18:18:59.802Z,2.10
2018-01-20T18:21:26.239Z,1.90
2018-01-20T18:23:53.894Z,1.70
2018-01-20T18:26:20.511Z,1.60
2018-01-20T18:28:47.033Z,1.60
2018-01-20T18:31:13.580Z,1.60
2018-01-20T18:33:40.144Z,1.60
2018-01-20T18:36:06.679Z,1.60
2018-01-20T18:38:33.173Z,1.60
2018-01-20T18:40:59.759Z,1.50
2018-01-20T18:43:26.285Z,1.40
2018-01-20T18:45:53.113Z,1.40
2018-01-20T18:48:19.632Z,1.30
2018-01-20T18:50:46.165Z,1.40
2018-01-20T18:53:12.744Z,1.40
2018-01-20T18:55:40.161Z,1.40
2018-01-20T18:58:06.696Z,1.30
2018-01-20T19:00:33.624Z,1.30
2018-01-20T19:03:00.116Z,1.30
2018-01-20T19:05:26.668Z,1.30
2018-01-20T19:07:54.055Z,1.40
2018-01-20T19:10:20.672Z,1.40
2018-01-20T19:12:48.408Z,1.40
2018-01-20T19:15:15.187Z,1.40
2018-01-20T19:17:41.750Z,1.40
2018-01-20T19:20:08.320Z,1.40
2018-01-20T19:22:35.111Z,1.40
2018-01-20T19:25:01.640Z,1.50
2018-01-20T19:27:28.531Z,1.40
2018-01-20T19:29:55.032Z,1.50
2018-01-20T19:32:21.556Z,1.60
2018-01-20T19:34:48.121Z,1.70
2018-01-20T19:37:16.224Z,1.90
2018-01-20T19:39:42.721Z,1.90
2018-01-20T19:42:09.250Z,1.80
2018-01-20T19:44:35.720Z,1.80
2018-01-20T19:47:02.312Z,1.90
2018-01-20T19:49:29.139Z,1.90
2018-01-20T19:51:56.048Z,1.90
2018-01-20T19:54:22.548Z,1.70
2018-01-20T19:56:49.108Z,1.60
2018-01-20T19:59:15.603Z,1.60
2018-01-20T20:01:44.298Z,1.60
2018-01-20T20:04:11.215Z,1.50
2018-01-20T20:06:37.679Z,1.60
2018-01-20T20:09:04.235Z,1.70
2018-01-20T20:11:31.024Z,1.70
2018-01-20T20:13:57.624Z,1.60
2018-01-20T20:16:24.158Z,1.60
2018-01-20T20:18:50.629Z,1.60
2018-01-20T20:21:17.532Z,1.50
2018-01-20T20:23:43.952Z,1.50
2018-01-20T20:26:10.567Z,1.50
2018-01-20T20:28:37.115Z,1.40
2018-01-20T20:31:03.636Z,1.40
2018-01-20T20:33:30.228Z,1.20
2018-01-20T20:35:56.704Z,1.10
2018-01-20T20:38:23.584Z,0.80
2018-01-20T20:40:50.144Z,0.80
2018-01-20T20:43:16.661Z,0.70
2018-01-20T20:45:43.161Z,0.50
2018-01-20T20:48:09.735Z,0.40
2018-01-20T20:50:36.526Z,0.40
2018-01-20T20:53:03.392Z,0.40
2018-01-20T20:55:29.956Z,0.30
2018-01-20T20:57:56.480Z,0.30
2018-01-20T21:00:22.985Z,0.20
2018-01-20T21:02:49.880Z,0.10
2018-01-20T21:05:16.408Z,0.10
2018-01-20T21:07:42.892Z,0.20
2018-01-20T21:10:09.409Z,0.20
2018-01-20T21:12:36.296Z,0.20
2018-01-20T21:15:02.892Z,0.20
2018-01-20T21:17:29.377Z,0.30
2018-01-20T21:19:56.184Z,0.20
2018-01-20T21:22:22.765Z,0.20
2018-01-20T21:24:49.310Z,0.30
2018-01-20T21:27:15.767Z,0.50
2018-01-20T21:29:42.431Z,0.50
2018-01-20T21:32:08.860Z,0.60
2018-01-20T21:34:35.384Z,0.80
2018-01-20T21:37:02.223Z,0.70
2018-01-20T21:39:28.819Z,0.70
2018-01-20T21:41:55.303Z,0.70
2018-01-20T21:44:21.835Z,0.60
2018-01-20T21:46:48.519Z,0.50
2018-01-20T21:49:15.508Z,0.30
2018-01-20T21:51:42.055Z,0.30
2018-01-20T21:54:08.648Z,0.30
2018-01-20T21:56:36.049Z,0.30
2018-01-20T21:59:02.653Z,0.50
2018-01-20T22:01:29.175Z,0.70
2018-01-20T22:03:55.691Z,0.70
2018-01-20T22:06:23.112Z,0.80
2018-01-20T22:08:49.939Z,0.90
2018-01-20T22:11:16.484Z,0.80
2018-01-20T22:13:43.993Z,0.80
2018-01-20T22:16:10.525Z,0.90
2018-01-20T22:18:36.990Z,0.80
2018-01-20T22:21:03.603Z,1.00
2018-01-20T22:23:30.083Z,1.00
2018-01-20T22:25:58.195Z,1.10
2018-01-20T22:28:24.736Z,1.20
2018-01-20T22:30:51.219Z,1.10
2018-01-20T22:33:17.743Z,0.90
2018-01-20T22:35:44.928Z,0.90
2018-01-20T22:38:11.471Z,0.90
2018-01-20T22:40:38.271Z,0.90
2018-01-20T22:43:04.815Z,1.00
2018-01-20T22:45:31.351Z,0.90
2018-01-20T22:47:58.248Z,0.80
2018-01-20T22:50:24.805Z,0.80
2018-01-20T22:52:51.262Z,0.50
2018-01-20T22:55:18.144Z,0.30
2018-01-20T22:57:44.996Z,0.30
2018-01-20T23:00:11.555Z,0.00
2018-01-20T23:02:39.564Z,0.00
2018-01-20T23:05:06.088Z,0.00
2018-01-20T23:07:32.932Z,0.00
2018-01-20T23:09:59.453Z,0.10
2018-01-20T23:12:26.052Z,0.20
2018-01-20T23:14:52.523Z,0.20
2018-01-20T23:17:19.055Z,0.30
2018-01-20T23:19:45.704Z,0.30
2018-01-20T23:22:12.441Z,0.40
2018-01-20T23:24:38.975Z,0.50
2018-01-20T23:27:05.580Z,0.50
2018-01-20T23:29:32.355Z,0.70
2018-01-20T23:31:58.928Z,0.70
2018-01-20T23:34:25.803Z,0.70
2018-01-20T23:36:52.337Z,0.80
2018-01-20T23:39:19.172Z,0.50
2018-01-20T23:41:45.635Z,0.30
2018-01-20T23:44:12.502Z,0.30
2018-01-20T23:46:40.025Z,0.40
2018-01-20T23:49:07.512Z,0.30
2018-01-20T23:51:33.943Z,0.40
2018-01-20T23:54:00.478Z,0.50
2018-01-20T23:56:27.359Z,0.40
2018-01-20T23:58:53.847Z,0.40
